Time;durP1;ratioP1;P1;durP2;ratioP2;P2;SDS_P1;SDS_P2;PMS_P1;PMS_P2;Temp;Humidity;BMP_temperature;BMP_pressure;BME280_temperature;BME280_humidity;BME280_pressure;Samples;Min_cycle;Max_cycle;Signal;HPM_P1;HPM_P2
2022/10/13 18:00:56;;;;;;;31.13;23.52;;;;;;;12.16;100.00;101383.84;6298816;22;1544109;-95
2022/10/13 18:03:23;;;;;;;27.77;22.90;;;;;;;12.18;100.00;101386.41;6309017;22;20030;-85
2022/10/13 18:05:48;;;;;;;29.17;21.17;;;;;;;12.15;100.00;101384.75;6311499;22;20007;-83
2022/10/13 18:08:14;;;;;;;28.17;22.98;;;;;;;12.16;100.00;101383.84;6311859;22;20447;-84
2022/10/13 18:10:39;;;;;;;29.63;22.90;;;;;;;12.22;100.00;101393.34;6316448;22;20061;-83
2022/10/13 18:13:04;;;;;;;34.25;24.08;;;;;;;12.21;100.00;101381.81;6312909;22;20030;-83
2022/10/13 18:15:34;;;;;;;31.75;23.88;;;;;;;12.21;100.00;101387.16;6312092;22;20324;-82
2022/10/13 18:18:00;;;;;;;31.83;24.52;;;;;;;12.21;100.00;101391.63;6310209;22;20076;-84
2022/10/13 18:20:26;;;;;;;33.25;24.15;;;;;;;12.18;100.00;101397.97;6311516;22;20034;-84
2022/10/13 18:22:51;;;;;;;31.65;24.13;;;;;;;12.11;100.00;101387.66;6311502;22;20428;-82
2022/10/13 18:25:16;;;;;;;28.98;24.00;;;;;;;12.07;100.00;101383.41;6310542;22;20003;-80
2022/10/13 18:27:42;;;;;;;32.25;25.42;;;;;;;12.04;100.00;101391.53;6309562;22;20385;-82
2022/10/13 18:30:07;;;;;;;34.75;24.77;;;;;;;11.96;100.00;101382.13;6282533;22;20026;-84
2022/10/13 18:32:33;;;;;;;35.03;24.63;;;;;;;11.98;100.00;101390.06;6311365;22;20034;-82
2022/10/13 18:34:58;;;;;;;32.03;24.92;;;;;;;11.95;100.00;101393.75;6312313;22;19999;-82
2022/10/13 18:37:23;;;;;;;35.53;26.08;;;;;;;11.91;100.00;101389.50;6310530;22;20063;-82
2022/10/13 18:39:49;;;;;;;35.22;27.48;;;;;;;11.96;100.00;101397.28;6308832;22;20081;-81
2022/10/13 18:42:14;;;;;;;38.28;27.65;;;;;;;11.94;100.00;101399.13;6311571;22;20010;-84
2022/10/13 18:44:39;;;;;;;36.35;27.20;;;;;;;11.96;100.00;101398.13;6312034;22;20014;-85
2022/10/13 18:47:05;;;;;;;37.00;26.88;;;;;;;11.98;100.00;101402.53;6311968;22;20003;-83
2022/10/13 18:49:32;;;;;;;38.10;28.30;;;;;;;11.99;100.00;101402.44;6311051;22;20067;-84
2022/10/13 18:52:00;;;;;;;36.97;27.52;;;;;;;11.93;100.00;101381.41;6314641;22;20333;-89
2022/10/13 18:54:27;;;;;;;37.78;28.70;;;;;;;12.03;100.00;101401.34;6313564;22;20328;-81
2022/10/13 18:56:53;;;;;;;38.58;27.48;;;;;;;12.05;100.00;101398.63;6303591;22;20027;-85
2022/10/13 18:59:19;;;;;;;36.13;28.10;;;;;;;12.05;100.00;101399.50;6304316;22;20010;-84
2022/10/13 19:01:44;;;;;;;33.47;26.33;;;;;;;12.03;100.00;101400.50;6303353;22;20056;-86
2022/10/13 19:04:11;;;;;;;35.35;25.70;;;;;;;12.04;100.00;101400.44;6306676;22;20015;-83
2022/10/13 19:06:37;;;;;;;34.78;25.30;;;;;;;12.01;100.00;101389.91;6303843;22;20037;-83
2022/10/13 19:09:06;;;;;;;30.27;24.35;;;;;;;12.03;100.00;101396.03;6300934;22;20336;-83
2022/10/13 19:11:32;;;;;;;31.25;23.70;;;;;;;12.00;100.00;101393.53;6303426;22;20010;-82
2022/10/13 19:13:59;;;;;;;29.98;24.70;;;;;;;12.05;100.00;101398.63;6301984;22;20313;-83
2022/10/13 19:16:26;;;;;;;28.33;22.95;;;;;;;12.04;100.00;101399.56;6303295;22;20003;-83
2022/10/13 19:18:52;;;;;;;29.85;22.95;;;;;;;12.00;100.00;101393.53;6310029;22;20003;-83
2022/10/13 19:21:18;;;;;;;27.83;22.95;;;;;;;12.03;100.00;101401.34;6310016;22;20013;-82
2022/10/13 19:23:44;;;;;;;29.23;23.85;;;;;;;12.06;100.00;101405.69;6305658;22;19995;-83
2022/10/13 19:26:15;;;;;;;27.27;22.83;;;;;;;12.06;100.00;101406.56;6306293;22;20002;-84
2022/10/13 19:28:43;;;;;;;25.20;21.88;;;;;;;12.06;100.00;101405.69;6307612;22;20066;-82
2022/10/13 19:31:10;;;;;;;29.25;23.00;;;;;;;12.04;100.00;101405.78;6277359;22;20011;-81
2022/10/13 19:33:35;;;;;;;25.15;21.00;;;;;;;12.06;100.00;101406.56;6306467;22;20009;-83
2022/10/13 19:36:01;;;;;;;25.92;21.80;;;;;;;12.04;100.00;101412.88;6306263;22;20078;-81
2022/10/13 19:38:26;;;;;;;24.30;20.95;;;;;;;12.04;100.00;101411.13;6277973;22;20381;-84
2022/10/13 19:40:52;;;;;;;24.75;21.63;;;;;;;12.03;100.00;101406.69;6279033;22;19999;-83
2022/10/13 19:43:18;;;;;;;24.63;22.02;;;;;;;12.04;100.00;101416.44;6305434;22;20045;-82
2022/10/13 19:45:45;;;;;;;23.50;20.90;;;;;;;12.06;100.00;101416.38;6303920;22;20035;-81
2022/10/13 19:48:12;;;;;;;24.48;21.65;;;;;;;12.02;100.00;101412.97;6306494;22;20056;-81
2022/10/13 19:50:37;;;;;;;24.67;22.08;;;;;;;11.96;100.00;101408.81;6311064;22;20063;-82
2022/10/13 19:53:03;;;;;;;27.23;21.90;;;;;;;11.99;100.00;101410.44;6316104;22;20014;-81
2022/10/13 19:55:29;;;;;;;26.77;22.85;;;;;;;11.95;100.00;101412.41;6311009;22;20003;-81
2022/10/13 19:57:54;;;;;;;26.17;23.15;;;;;;;11.94;100.00;101408.00;6305968;22;20409;-82
2022/10/13 20:00:20;;;;;;;28.48;23.00;;;;;;;11.96;100.00;101399.94;6305352;22;20439;-82
2022/10/13 20:02:45;;;;;;;25.90;23.10;;;;;;;11.93;100.00;101406.28;6304225;22;20022;-83
2022/10/13 20:05:10;;;;;;;27.08;23.63;;;;;;;11.93;100.00;101416.94;6300461;22;20003;-83
2022/10/13 20:07:36;;;;;;;28.35;23.50;;;;;;;11.90;100.00;101422.41;6273851;22;19998;-82
2022/10/13 20:10:01;;;;;;;24.70;21.70;;;;;;;11.88;100.00;101416.31;6276360;22;20007;-82
2022/10/13 20:12:26;;;;;;;25.65;21.70;;;;;;;11.88;100.00;101421.66;6302679;22;20056;-82
2022/10/13 20:14:52;;;;;;;25.65;22.33;;;;;;;11.89;100.00;101411.84;6302072;22;20086;-81
2022/10/13 20:17:17;;;;;;;28.00;22.73;;;;;;;11.90;100.00;101414.41;6300937;22;20007;-82
2022/10/13 20:19:43;;;;;;;28.88;22.88;;;;;;;11.90;100.00;101409.09;6301875;22;20007;-82
2022/10/13 20:22:08;;;;;;;27.40;22.35;;;;;;;11.92;100.00;101417.03;6300857;22;20094;-81
2022/10/13 20:24:33;;;;;;;28.35;23.38;;;;;;;11.93;100.00;101414.28;6273701;22;19999;-83
2022/10/13 20:26:59;;;;;;;29.25;23.90;;;;;;;11.94;100.00;101416.00;6299960;22;20053;-84
2022/10/13 20:29:24;;;;;;;27.30;22.83;;;;;;;11.92;100.00;101409.91;6299742;22;20011;-83
2022/10/13 20:31:49;;;;;;;27.90;23.33;;;;;;;11.96;100.00;101410.63;6300704;22;20042;-82
2022/10/13 20:34:15;;;;;;;27.85;23.38;;;;;;;11.96;100.00;101413.28;6301978;22;20401;-85
2022/10/13 20:36:40;;;;;;;30.17;23.73;;;;;;;11.99;100.00;101417.59;6274343;22;20010;-82
2022/10/13 20:39:07;;;;;;;29.95;24.42;;;;;;;11.94;100.00;101412.47;6300475;22;20412;-79
2022/10/13 20:41:33;;;;;;;29.55;23.50;;;;;;;11.94;100.00;101407.13;6302519;22;20663;-82
2022/10/13 20:43:59;;;;;;;33.05;25.17;;;;;;;11.95;100.00;101414.19;6300866;22;20003;-81
2022/10/13 20:46:25;;;;;;;33.53;24.63;;;;;;;11.98;100.00;101424.72;6301545;22;20006;-82
2022/10/13 20:48:52;;;;;;;28.35;22.60;;;;;;;11.98;100.00;101423.88;6301951;22;20016;-82
2022/10/13 20:51:20;;;;;;;29.08;24.08;;;;;;;11.95;100.00;101416.88;6300567;22;20007;-81
2022/10/13 20:53:47;;;;;;;31.15;24.55;;;;;;;11.97;100.00;101425.69;6302665;22;20416;-80
2022/10/13 20:56:21;;;;;;;32.22;25.08;;;;;;;11.98;100.00;101419.41;6303152;22;20018;-82
2022/10/13 20:58:47;;;;;;;31.83;25.35;;;;;;;11.99;100.00;101423.78;6302904;22;20086;-83
2022/10/13 21:01:14;;;;;;;30.10;24.98;;;;;;;11.99;100.00;101430.94;6303367;22;20023;-80
2022/10/13 21:03:39;;;;;;;29.27;24.23;;;;;;;11.98;100.00;101427.41;6302425;22;20010;-82
2022/10/13 21:06:10;;;;;;;48.55;34.60;;;;;;;11.95;100.00;101428.44;6301497;22;20030;-81
2022/10/13 21:08:35;;;;;;;33.47;26.50;;;;;;;11.85;100.00;101419.09;6271792;22;20085;-82
2022/10/13 21:11:09;;;;;;;36.50;28.00;;;;;;;11.88;100.00;101431.44;6302433;22;20031;-82
2022/10/13 21:13:36;;;;;;;40.60;28.67;;;;;;;11.84;100.00;101436.06;6300087;22;20064;-82
2022/10/13 21:16:28;;;;;;;33.45;25.92;;;;;;;11.85;100.00;101432.44;6302249;22;20003;-82
2022/10/13 21:18:55;;;;;;;36.00;26.25;;;;;;;11.86;100.00;101431.50;6300574;22;20424;-81
2022/10/13 21:21:23;;;;;;;35.97;28.05;;;;;;;11.86;100.00;101428.84;6298697;22;20003;-83
2022/10/13 21:23:53;;;;;;;34.70;27.08;;;;;;;11.86;100.00;101428.84;6299985;22;20003;-82
2022/10/13 21:26:19;;;;;;;33.30;24.42;;;;;;;11.83;100.00;101421.00;6300612;22;20002;-83
2022/10/13 21:28:44;;;;;;;32.25;25.42;;;;;;;11.85;100.00;101420.91;6299249;22;20424;-82
2022/10/13 21:31:12;;;;;;;35.33;26.55;;;;;;;11.85;100.00;101427.13;6271749;22;20003;-80
2022/10/13 21:33:39;;;;;;;32.28;23.80;;;;;;;11.84;100.00;101417.38;6273170;22;20007;-84
2022/10/13 21:36:23;;;;;;;33.72;24.85;;;;;;;11.91;100.00;101431.28;6300991;22;20003;-82
2022/10/13 21:38:52;;;;;;;32.55;24.38;;;;;;;11.89;100.00;101419.84;6301986;22;20003;-82
2022/10/13 21:41:17;;;;;;;30.15;24.02;;;;;;;11.88;100.00;101416.31;6301330;22;20007;-83
2022/10/13 21:43:42;;;;;;;30.40;24.33;;;;;;;11.91;100.00;101417.94;6276016;22;20463;-84
2022/10/13 21:46:13;;;;;;;32.90;24.42;;;;;;;11.90;100.00;101419.75;6301945;22;20602;-82
2022/10/13 21:48:38;;;;;;;30.77;24.58;;;;;;;11.91;100.00;101416.16;6301721;22;20003;-82
2022/10/13 21:51:31;;;;;;;31.27;23.83;;;;;;;11.93;100.00;101414.28;6302433;22;20014;-83
2022/10/13 21:53:59;;;;;;;30.63;23.70;;;;;;;11.91;100.00;101416.16;6297355;22;20433;-83
2022/10/13 21:56:26;;;;;;;30.90;23.40;;;;;;;11.93;100.00;101414.28;6301301;22;20511;-82
2022/10/13 21:58:52;;;;;;;29.20;22.67;;;;;;;11.94;100.00;101416.00;6305248;22;20011;-84
2022/10/13 22:01:18;;;;;;;28.50;22.90;;;;;;;11.96;100.00;101419.47;6302624;22;20019;-84
2022/10/13 22:03:45;;;;;;;31.15;24.50;;;;;;;11.96;100.00;101411.47;6301979;22;20014;-86
2022/10/13 22:06:13;;;;;;;29.80;23.65;;;;;;;11.95;100.00;101407.09;6305118;22;19999;-92
2022/10/13 22:08:41;;;;;;;34.47;24.23;;;;;;;11.96;100.00;101406.13;6307880;22;20003;-84
2022/10/13 22:11:08;;;;;;;28.50;22.52;;;;;;;11.97;100.00;101401.66;6306051;22;20010;-85
2022/10/13 22:13:35;;;;;;;31.48;25.30;;;;;;;11.90;100.00;101395.75;6279852;22;20436;-85
2022/10/13 22:16:13;;;;;;;30.05;24.80;;;;;;;11.99;100.00;101406.91;6307528;22;19999;-86
2022/10/13 22:18:38;;;;;;;34.53;26.02;;;;;;;11.93;100.00;101395.59;6317456;22;20003;-90
2022/10/13 22:21:06;;;;;;;32.03;25.08;;;;;;;11.96;100.00;101397.28;6306517;22;19998;-82
2022/10/13 22:23:32;;;;;;;30.95;25.05;;;;;;;11.93;100.00;101384.94;6303859;22;20010;-82
2022/10/13 22:25:57;;;;;;;36.88;26.98;;;;;;;11.97;100.00;101393.66;6303895;22;20003;-85
2022/10/13 22:28:23;;;;;;;33.97;26.13;;;;;;;11.91;100.00;101384.16;6307183;22;20079;-82
2022/10/13 22:30:50;;;;;;;30.13;25.30;;;;;;;11.98;100.00;101391.84;6307447;22;19999;-82
2022/10/13 22:33:15;;;;;;;29.95;25.05;;;;;;;11.99;100.00;101390.91;6307673;22;20075;-83
2022/10/13 22:35:40;;;;;;;30.85;25.50;;;;;;;11.99;100.00;101385.56;6307086;22;20428;-82
2022/10/13 22:38:06;;;;;;;33.83;26.10;;;;;;;11.99;100.00;101385.56;6304482;22;20058;-83
2022/10/13 22:40:31;;;;;;;30.42;24.42;;;;;;;11.95;100.00;101380.41;6304223;22;20011;-83
2022/10/13 22:42:56;;;;;;;31.83;25.35;;;;;;;11.99;100.00;101386.44;6305529;22;20074;-83
2022/10/13 22:45:22;;;;;;;31.08;25.90;;;;;;;12.00;100.00;101387.28;6304700;22;20027;-84
2022/10/13 22:47:48;;;;;;;34.78;25.42;;;;;;;11.98;100.00;101379.38;6304277;22;20006;-82
2022/10/13 22:50:14;;;;;;;29.77;26.25;;;;;;;11.98;100.00;101373.19;6303237;22;20424;-83
2022/10/13 22:52:39;;;;;;;33.47;25.90;;;;;;;11.98;100.00;101378.50;6277320;22;20047;-83
2022/10/13 22:55:05;;;;;;;33.75;27.70;;;;;;;11.96;100.00;101367.94;6303819;22;19999;-83
2022/10/13 22:57:30;;;;;;;33.05;26.33;;;;;;;11.94;100.00;101368.00;6276527;22;20451;-82
2022/10/13 22:59:55;;;;;;;34.90;27.67;;;;;;;11.96;100.00;101368.78;6304891;22;20385;-82
2022/10/13 23:02:21;;;;;;;34.42;27.33;;;;;;;11.93;100.00;101366.25;6303819;22;20022;-83
2022/10/13 23:04:47;;;;;;;35.20;26.92;;;;;;;11.95;100.00;101363.50;6304917;22;19999;-83
2022/10/13 23:07:13;;;;;;;36.72;26.20;;;;;;;11.96;100.00;101367.94;6276281;22;20061;-83
2022/10/13 23:09:38;;;;;;;32.28;26.08;;;;;;;11.92;100.00;101367.22;6304299;22;20003;-83
2022/10/13 23:12:03;;;;;;;35.15;27.40;;;;;;;11.93;100.00;101371.59;6304710;22;20420;-83
2022/10/13 23:14:29;;;;;;;34.20;26.42;;;;;;;11.90;100.00;101365.53;6307453;22;19995;-82
2022/10/13 23:16:54;;;;;;;39.95;27.65;;;;;;;11.89;100.00;101367.34;6305298;22;20097;-84
2022/10/13 23:19:19;;;;;;;37.15;26.50;;;;;;;11.90;100.00;101369.06;6305040;22;20003;-84
2022/10/13 23:21:44;;;;;;;33.97;26.58;;;;;;;11.89;100.00;101366.50;6278449;22;20034;-84
2022/10/13 23:24:10;;;;;;;37.05;26.63;;;;;;;11.83;100.00;101365.00;6277644;22;20022;-84
2022/10/13 23:26:36;;;;;;;35.78;25.77;;;;;;;11.83;100.00;101359.66;6304120;22;20004;-83
2022/10/13 23:29:01;;;;;;;37.20;25.40;;;;;;;11.86;100.00;101363.97;6304410;22;20003;-82
2022/10/13 23:31:27;;;;;;;32.75;24.88;;;;;;;11.84;100.00;101358.72;6276968;22;20432;-81
2022/10/13 23:33:53;;;;;;;31.35;23.77;;;;;;;11.83;100.00;101350.75;6304675;22;20003;-82
2022/10/13 23:36:21;;;;;;;33.28;23.27;;;;;;;11.82;100.00;101339.19;6303165;22;20014;-82
2022/10/13 23:38:46;;;;;;;29.88;21.88;;;;;;;11.82;100.00;101341.00;6302483;22;20026;-83
2022/10/13 23:41:14;;;;;;;27.45;21.75;;;;;;;11.83;100.00;101338.31;6303374;22;20055;-82
2022/10/13 23:43:40;;;;;;;24.52;19.65;;;;;;;11.81;100.00;101326.81;6303893;22;20332;-83
2022/10/13 23:46:06;;;;;;;28.50;22.58;;;;;;;11.85;100.00;101335.56;6303076;22;20086;-84
2022/10/13 23:48:32;;;;;;;25.65;20.95;;;;;;;11.84;100.00;101334.72;6276201;22;20031;-84
2022/10/13 23:50:57;;;;;;;27.48;21.83;;;;;;;11.84;100.00;101340.03;6303628;22;20011;-83
2022/10/13 23:53:23;;;;;;;25.90;21.60;;;;;;;11.85;100.00;101335.56;6275127;22;20332;-84
2022/10/13 23:55:48;;;;;;;28.77;21.45;;;;;;;11.84;100.00;101337.38;6305023;22;20086;-83
2022/10/13 23:58:14;;;;;;;30.60;23.00;;;;;;;11.82;100.00;101331.19;6303981;22;20003;-83
